createdAt,value
2022-10-17T00:02:02.534Z,21.02
2022-10-17T00:04:31.618Z,21.00
2022-10-17T00:06:58.002Z,20.99
2022-10-17T00:09:24.244Z,20.98
2022-10-17T00:11:50.485Z,20.97
2022-10-17T00:14:16.724Z,20.96
2022-10-17T00:16:42.999Z,20.94
2022-10-17T00:19:09.323Z,20.94
2022-10-17T00:21:35.521Z,20.93
2022-10-17T00:24:03.382Z,20.91
2022-10-17T00:26:29.595Z,20.91
2022-10-17T00:28:56.474Z,20.90
2022-10-17T00:31:22.712Z,20.88
2022-10-17T00:33:48.951Z,20.87
2022-10-17T00:36:15.162Z,20.87
2022-10-17T00:38:41.406Z,20.85
2022-10-17T00:41:07.636Z,20.85
2022-10-17T00:43:33.852Z,20.84
2022-10-17T00:46:00.046Z,20.82
2022-10-17T00:48:26.288Z,20.80
2022-10-17T00:50:52.515Z,20.79
2022-10-17T00:53:19.414Z,20.79
2022-10-17T00:55:45.700Z,20.78
2022-10-17T00:58:12.330Z,20.77
2022-10-17T01:00:38.530Z,20.78
2022-10-17T01:03:04.849Z,20.79
2022-10-17T01:05:31.379Z,20.79
2022-10-17T01:07:57.607Z,20.78
2022-10-17T01:10:23.995Z,20.78
2022-10-17T01:12:50.243Z,20.78
2022-10-17T01:15:16.513Z,20.76
2022-10-17T01:17:42.913Z,20.76
2022-10-17T01:20:09.232Z,20.76
2022-10-17T01:22:36.308Z,20.74
2022-10-17T01:25:02.553Z,20.74
2022-10-17T01:27:29.496Z,20.73
2022-10-17T01:29:55.736Z,20.72
2022-10-17T01:32:22.457Z,20.73
2022-10-17T01:34:48.681Z,20.72
2022-10-17T01:37:15.050Z,20.72
2022-10-17T01:39:43.933Z,20.71
2022-10-17T01:42:11.787Z,20.71
2022-10-17T01:44:38.003Z,20.71
2022-10-17T01:47:04.175Z,20.69
2022-10-17T01:49:30.368Z,20.69
2022-10-17T01:51:56.615Z,20.68
2022-10-17T01:54:22.947Z,20.66
2022-10-17T01:56:49.436Z,20.65
2022-10-17T01:59:15.616Z,20.65
2022-10-17T02:01:41.872Z,20.63
2022-10-17T02:04:08.948Z,20.62
2022-10-17T02:06:35.234Z,20.62
2022-10-17T02:09:01.945Z,20.60
2022-10-17T02:11:28.441Z,20.60
2022-10-17T02:13:54.605Z,20.57
2022-10-17T02:16:20.904Z,20.56
2022-10-17T02:18:47.168Z,20.57
2022-10-17T02:21:13.581Z,20.56
2022-10-17T02:23:39.698Z,20.55
2022-10-17T02:26:05.913Z,20.39
2022-10-17T02:28:32.154Z,20.53
2022-10-17T02:30:58.404Z,20.52
2022-10-17T02:33:24.609Z,20.51
2022-10-17T02:35:50.802Z,20.50
2022-10-17T02:38:17.259Z,20.48
2022-10-17T02:40:43.454Z,20.46
2022-10-17T02:43:09.639Z,20.44
2022-10-17T02:45:36.205Z,20.45
2022-10-17T02:48:02.448Z,20.43
2022-10-17T02:52:54.789Z,20.42
2022-10-17T02:55:21.009Z,20.41
2022-10-17T02:57:47.522Z,20.40
2022-10-17T03:00:13.874Z,20.39
2022-10-17T03:02:40.453Z,20.39
2022-10-17T03:05:06.765Z,20.25
2022-10-17T03:07:32.961Z,20.37
2022-10-17T03:09:59.194Z,20.37
2022-10-17T03:12:25.459Z,20.36
2022-10-17T03:14:51.715Z,20.35
2022-10-17T03:17:17.917Z,20.34
2022-10-17T03:19:44.160Z,20.33
2022-10-17T03:22:10.427Z,20.33
2022-10-17T03:24:36.711Z,20.33
2022-10-17T03:27:02.988Z,20.32
2022-10-17T03:29:29.244Z,20.31
2022-10-17T03:31:55.665Z,20.31
2022-10-17T03:34:21.923Z,20.30
2022-10-17T03:36:48.060Z,20.28
2022-10-17T03:39:14.292Z,20.29
2022-10-17T03:41:40.535Z,20.28
2022-10-17T03:44:06.804Z,20.27
2022-10-17T03:46:33.186Z,20.27
2022-10-17T03:48:59.406Z,20.27
2022-10-17T03:51:25.646Z,20.27
2022-10-17T03:53:51.907Z,20.27
2022-10-17T03:56:18.117Z,20.26
2022-10-17T03:58:44.239Z,20.26
2022-10-17T04:01:10.512Z,20.26
2022-10-17T04:03:36.807Z,20.27
2022-10-17T04:06:02.986Z,20.27
2022-10-17T04:08:29.203Z,20.28
2022-10-17T04:10:56.602Z,20.28
2022-10-17T04:13:22.742Z,20.28
2022-10-17T04:15:48.871Z,20.28
2022-10-17T04:18:15.016Z,20.28
2022-10-17T04:20:41.145Z,20.28
2022-10-17T04:23:07.403Z,20.28
2022-10-17T04:25:36.076Z,20.26
2022-10-17T04:28:02.967Z,20.27
2022-10-17T04:30:29.120Z,20.26
2022-10-17T04:32:55.283Z,20.26
2022-10-17T04:35:21.441Z,20.25
2022-10-17T04:37:47.727Z,20.25
2022-10-17T04:40:13.877Z,20.25
2022-10-17T04:42:40.037Z,20.24
2022-10-17T04:45:06.203Z,20.24
2022-10-17T04:47:33.463Z,20.24
2022-10-17T04:49:59.628Z,20.24
2022-10-17T04:52:25.813Z,20.22
2022-10-17T04:54:51.971Z,20.23
2022-10-17T04:57:18.292Z,20.22
2022-10-17T04:59:44.429Z,20.21
2022-10-17T05:02:10.576Z,20.20
2022-10-17T05:04:36.760Z,20.20
2022-10-17T05:07:02.906Z,20.20
2022-10-17T05:09:29.041Z,20.22
2022-10-17T05:11:55.337Z,20.27
2022-10-17T05:14:21.534Z,20.32
2022-10-17T05:16:47.773Z,20.38
2022-10-17T05:19:13.910Z,20.45
2022-10-17T05:21:40.066Z,20.51
2022-10-17T05:24:06.263Z,20.56
2022-10-17T05:26:32.408Z,20.61
2022-10-17T05:28:58.561Z,20.64
2022-10-17T05:31:24.859Z,20.68
2022-10-17T05:33:51.029Z,20.71
2022-10-17T05:36:17.333Z,20.72
2022-10-17T05:38:43.471Z,20.75
2022-10-17T05:41:09.613Z,20.78
2022-10-17T05:43:35.744Z,20.79
2022-10-17T05:46:01.883Z,20.83
2022-10-17T05:48:28.001Z,20.86
2022-10-17T05:50:54.277Z,20.87
2022-10-17T05:53:20.495Z,20.83
2022-10-17T05:55:47.087Z,20.72
2022-10-17T05:58:21.775Z,20.66
2022-10-17T06:00:48.682Z,20.66
2022-10-17T06:03:15.077Z,20.70
2022-10-17T06:05:41.353Z,20.75
2022-10-17T06:08:07.518Z,20.79
2022-10-17T06:10:33.679Z,20.84
2022-10-17T06:12:59.819Z,20.88
2022-10-17T06:15:25.964Z,20.91
2022-10-17T06:17:52.109Z,20.95
2022-10-17T06:20:18.308Z,20.98
2022-10-17T06:22:44.502Z,21.01
2022-10-17T06:25:10.654Z,21.05
2022-10-17T06:27:36.864Z,21.08
2022-10-17T06:30:03.045Z,21.11
2022-10-17T06:32:29.420Z,21.14
2022-10-17T06:35:14.386Z,21.19
2022-10-17T06:38:00.856Z,21.26
2022-10-17T06:40:47.310Z,21.39
2022-10-17T06:43:33.778Z,21.55
2022-10-17T06:46:20.291Z,21.60
2022-10-17T06:48:46.453Z,21.57
2022-10-17T06:51:12.599Z,21.60
2022-10-17T06:53:39.033Z,21.66
2022-10-17T06:56:05.273Z,21.70
2022-10-17T06:58:31.834Z,21.72
2022-10-17T07:01:00.923Z,21.78
2022-10-17T07:03:27.502Z,21.88
2022-10-17T07:05:53.728Z,22.05
2022-10-17T07:08:20.004Z,22.18
2022-10-17T07:10:46.307Z,22.31
2022-10-17T07:13:12.887Z,22.35
2022-10-17T07:15:39.190Z,22.48
2022-10-17T07:18:05.521Z,22.60
2022-10-17T07:20:31.753Z,22.53
2022-10-17T07:22:58.121Z,22.67
2022-10-17T07:25:24.341Z,22.84
2022-10-17T07:27:50.634Z,22.94
2022-10-17T07:30:17.005Z,23.08
2022-10-17T07:32:43.402Z,23.20
2022-10-17T07:35:09.745Z,23.30
2022-10-17T07:37:36.003Z,23.41
2022-10-17T07:40:02.579Z,23.55
2022-10-17T07:42:29.161Z,23.65
2022-10-17T07:44:55.547Z,23.73
2022-10-17T07:47:22.549Z,23.71
2022-10-17T07:49:49.901Z,23.86
2022-10-17T07:52:17.642Z,23.86
2022-10-17T07:54:44.163Z,23.94
2022-10-17T07:57:10.453Z,23.97
2022-10-17T07:59:38.123Z,23.97
2022-10-17T08:02:04.508Z,23.97
2022-10-17T08:04:30.926Z,23.96
2022-10-17T08:07:11.331Z,23.90
2022-10-17T08:09:43.953Z,23.94
2022-10-17T08:12:10.305Z,23.97
2022-10-17T08:14:37.134Z,24.04
2022-10-17T08:17:03.614Z,24.09
2022-10-17T08:19:32.505Z,24.12
2022-10-17T08:21:58.893Z,24.22
2022-10-17T08:24:25.319Z,24.38
2022-10-17T08:26:52.083Z,24.53
2022-10-17T08:29:22.758Z,24.69
2022-10-17T08:31:51.096Z,24.77
2022-10-17T08:34:20.488Z,24.79
2022-10-17T08:36:46.878Z,24.81
2022-10-17T08:39:15.433Z,24.78
2022-10-17T08:41:41.760Z,24.73
2022-10-17T08:44:08.020Z,24.80
2022-10-17T08:46:34.314Z,24.83
2022-10-17T08:49:00.813Z,24.73
2022-10-17T08:51:30.252Z,24.50
2022-10-17T08:53:56.531Z,24.29
2022-10-17T08:56:48.942Z,24.17
2022-10-17T08:59:13.710Z,24.10
2022-10-17T09:01:41.495Z,24.04
2022-10-17T09:04:08.393Z,24.04
2022-10-17T09:06:35.350Z,24.02
2022-10-17T09:09:04.277Z,24.03
2022-10-17T09:11:32.564Z,24.05
2022-10-17T09:13:58.966Z,24.06
2022-10-17T09:16:25.306Z,24.08
2022-10-17T09:18:51.551Z,24.11
2022-10-17T09:21:17.984Z,24.13
2022-10-17T09:23:44.294Z,24.13
2022-10-17T09:26:10.512Z,24.10
2022-10-17T09:28:38.870Z,24.13
2022-10-17T09:31:07.308Z,24.10
2022-10-17T09:33:42.591Z,24.12
2022-10-17T09:36:19.619Z,24.12
2022-10-17T09:38:51.479Z,24.12
2022-10-17T09:41:43.054Z,24.17
2022-10-17T09:44:05.193Z,24.21
2022-10-17T09:46:40.787Z,24.21
2022-10-17T09:49:10.250Z,24.25
2022-10-17T09:51:38.758Z,24.26
2022-10-17T09:54:05.025Z,24.26
2022-10-17T09:56:31.266Z,24.28
2022-10-17T09:58:57.582Z,24.29
2022-10-17T10:01:24.494Z,24.31
2022-10-17T10:03:51.027Z,24.32
2022-10-17T10:06:17.586Z,24.32
2022-10-17T10:08:43.858Z,24.33
2022-10-17T10:11:13.802Z,24.33
2022-10-17T10:13:41.298Z,24.35
2022-10-17T10:16:12.079Z,24.37
2022-10-17T10:18:39.110Z,24.37
2022-10-17T10:21:07.489Z,24.38
2022-10-17T10:24:29.618Z,24.41
2022-10-17T10:26:29.482Z,24.44
2022-10-17T10:28:55.780Z,24.46
2022-10-17T10:31:22.145Z,24.47
2022-10-17T10:33:50.903Z,24.49
2022-10-17T10:39:04.020Z,24.58
2022-10-17T10:41:31.915Z,24.59
2022-10-17T10:43:58.231Z,24.58
2022-10-17T10:46:24.506Z,24.61
2022-10-17T10:48:50.793Z,24.65
2022-10-17T10:51:17.625Z,24.65
2022-10-17T10:53:43.907Z,24.65
2022-10-17T10:56:21.555Z,24.66
2022-10-17T10:58:48.111Z,24.63
2022-10-17T11:01:14.420Z,24.53
2022-10-17T11:06:07.402Z,24.41
2022-10-17T11:08:37.848Z,24.39
2022-10-17T11:11:04.201Z,24.37
2022-10-17T11:13:34.771Z,24.35
2022-10-17T11:16:01.163Z,24.31
2022-10-17T11:18:29.850Z,24.27
2022-10-17T11:20:57.473Z,24.23
2022-10-17T11:23:26.987Z,24.19
2022-10-17T11:25:53.625Z,24.16
2022-10-17T11:28:29.156Z,24.14
2022-10-17T11:30:55.649Z,24.15
2022-10-17T11:33:21.996Z,24.19
2022-10-17T11:35:48.308Z,24.24
2022-10-17T11:38:14.543Z,24.22
2022-10-17T11:43:55.133Z,24.27
2022-10-17T11:46:21.536Z,24.29
2022-10-17T11:48:47.863Z,24.36
2022-10-17T11:54:00.888Z,24.42
2022-10-17T11:56:27.256Z,24.40
2022-10-17T11:58:53.551Z,24.34
2022-10-17T12:01:19.819Z,24.31
2022-10-17T12:03:46.082Z,24.32
2022-10-17T12:06:12.457Z,24.32
2022-10-17T12:08:38.866Z,24.40
2022-10-17T12:11:05.243Z,24.45
2022-10-17T12:13:31.539Z,24.48
2022-10-17T12:15:58.153Z,24.51
2022-10-17T12:18:26.945Z,24.51
2022-10-17T12:20:55.385Z,24.53
2022-10-17T12:23:21.778Z,24.56
2022-10-17T12:25:51.161Z,24.53
2022-10-17T12:28:17.512Z,24.51
2022-10-17T12:30:43.959Z,24.51
2022-10-17T12:33:10.326Z,24.49
2022-10-17T12:35:36.622Z,24.47
2022-10-17T12:38:03.905Z,24.44
2022-10-17T12:40:30.792Z,24.46
2022-10-17T12:43:10.875Z,24.51
2022-10-17T12:45:43.135Z,24.49
2022-10-17T12:48:09.497Z,24.47
2022-10-17T12:50:38.051Z,24.51
2022-10-17T12:53:04.500Z,24.53
2022-10-17T12:55:30.788Z,24.57
2022-10-17T12:57:57.614Z,24.60
2022-10-17T13:00:23.945Z,24.60
2022-10-17T13:02:51.218Z,24.64
2022-10-17T13:05:17.522Z,24.64
2022-10-17T13:07:43.890Z,24.65
2022-10-17T13:10:14.817Z,24.65
2022-10-17T13:12:41.975Z,24.62
2022-10-17T13:15:08.432Z,24.60
2022-10-17T13:17:34.789Z,24.53
2022-10-17T13:20:02.101Z,24.49
2022-10-17T13:22:28.763Z,24.47
2022-10-17T13:24:55.306Z,24.46
2022-10-17T13:27:21.894Z,24.47
2022-10-17T13:29:48.206Z,24.44
2022-10-17T13:32:14.527Z,24.42
2022-10-17T13:34:40.989Z,24.42
2022-10-17T13:37:07.248Z,24.43
2022-10-17T13:39:52.817Z,24.42
2022-10-17T13:42:20.782Z,24.43
2022-10-17T13:44:46.985Z,24.40
2022-10-17T13:47:13.871Z,24.32
2022-10-17T13:49:40.158Z,24.37
2022-10-17T13:52:06.697Z,24.36
2022-10-17T13:54:32.997Z,24.33
2022-10-17T13:57:00.668Z,24.30
2022-10-17T13:59:40.012Z,24.30
2022-10-17T14:02:13.837Z,24.28
2022-10-17T14:05:11.744Z,24.28
2022-10-17T14:07:26.845Z,24.27
2022-10-17T14:09:54.337Z,24.25
2022-10-17T14:12:20.593Z,24.24
2022-10-17T14:15:09.254Z,24.23
2022-10-17T14:17:33.663Z,24.22
2022-10-17T14:20:16.415Z,24.20
2022-10-17T14:25:36.587Z,24.17
2022-10-17T14:28:02.998Z,24.16
2022-10-17T14:33:16.046Z,24.12
2022-10-17T14:35:42.475Z,24.11
2022-10-17T14:38:09.240Z,24.11
2022-10-17T14:40:35.463Z,24.13
2022-10-17T14:43:02.080Z,24.16
2022-10-17T14:45:28.355Z,24.18
2022-10-17T14:47:54.716Z,24.20
2022-10-17T14:50:21.033Z,24.22
2022-10-17T14:52:47.442Z,24.22
2022-10-17T14:55:13.877Z,24.23
2022-10-17T14:57:40.334Z,24.23
2022-10-17T15:00:06.591Z,24.24
2022-10-17T15:02:33.263Z,24.24
2022-10-17T15:05:00.046Z,24.25
2022-10-17T15:07:26.446Z,24.24
2022-10-17T15:09:52.810Z,24.25
2022-10-17T15:12:19.111Z,24.25
2022-10-17T15:14:45.328Z,24.25
2022-10-17T15:17:11.653Z,24.25
2022-10-17T15:19:38.150Z,24.25
2022-10-17T15:22:04.588Z,24.24
2022-10-17T15:24:30.849Z,24.24
2022-10-17T15:26:57.237Z,24.24
2022-10-17T15:29:23.488Z,24.23
2022-10-17T15:31:50.176Z,24.23
2022-10-17T15:34:16.734Z,24.23
2022-10-17T15:36:42.949Z,24.24
2022-10-17T15:39:09.155Z,24.22
2022-10-17T15:41:35.749Z,24.22
2022-10-17T15:44:03.211Z,24.21
2022-10-17T15:46:29.476Z,24.21
2022-10-17T15:48:55.820Z,24.21
2022-10-17T15:51:22.082Z,24.20
2022-10-17T15:53:48.290Z,24.19
2022-10-17T15:56:14.552Z,24.18
2022-10-17T15:58:40.749Z,24.17
2022-10-17T16:01:07.350Z,24.16
2022-10-17T16:03:33.810Z,24.15
2022-10-17T16:06:01.032Z,24.14
2022-10-17T16:08:27.367Z,24.12
2022-10-17T16:10:53.639Z,24.12
2022-10-17T16:13:19.879Z,24.09
2022-10-17T16:15:46.245Z,24.08
2022-10-17T16:18:14.158Z,24.06
2022-10-17T16:20:40.540Z,24.05
2022-10-17T16:23:07.090Z,24.04
2022-10-17T16:25:33.415Z,24.02
2022-10-17T16:27:59.616Z,24.00
2022-10-17T16:30:26.253Z,23.98
2022-10-17T16:32:52.503Z,23.98
2022-10-17T16:35:19.100Z,23.98
2022-10-17T16:37:45.573Z,23.94
2022-10-17T16:40:11.828Z,23.92
2022-10-17T16:42:38.479Z,23.91
2022-10-17T16:45:04.676Z,23.90
2022-10-17T16:47:31.053Z,23.89
2022-10-17T16:49:57.322Z,23.88
2022-10-17T16:52:23.639Z,23.86
2022-10-17T16:54:50.858Z,23.86
2022-10-17T16:57:17.046Z,23.85
2022-10-17T16:59:43.271Z,23.82
2022-10-17T17:02:09.884Z,23.82
2022-10-17T17:04:36.194Z,23.80
2022-10-17T17:07:02.597Z,23.79
2022-10-17T17:09:28.890Z,23.78
2022-10-17T17:11:55.103Z,23.78
2022-10-17T17:14:21.508Z,23.76
2022-10-17T17:16:47.947Z,23.74
2022-10-17T17:19:14.421Z,23.73
2022-10-17T17:21:40.661Z,23.73
2022-10-17T17:24:06.936Z,23.71
2022-10-17T17:29:04.307Z,23.69
2022-10-17T17:31:30.564Z,23.69
2022-10-17T17:33:57.454Z,23.67
2022-10-17T17:36:23.714Z,23.66
2022-10-17T17:38:49.900Z,23.66
2022-10-17T17:41:16.198Z,23.65
2022-10-17T17:43:42.820Z,23.64
2022-10-17T17:46:09.143Z,23.63
2022-10-17T17:48:35.646Z,23.62
2022-10-17T17:51:02.432Z,23.62
2022-10-17T17:53:28.893Z,23.61
2022-10-17T17:55:55.191Z,23.60
2022-10-17T17:58:21.999Z,23.59
2022-10-17T18:00:48.390Z,23.57
2022-10-17T18:03:14.862Z,23.57
2022-10-17T18:05:41.259Z,23.56
2022-10-17T18:08:07.652Z,23.56
2022-10-17T18:10:33.836Z,23.54
2022-10-17T18:13:00.078Z,23.53
2022-10-17T18:15:26.547Z,23.52
2022-10-17T18:17:53.581Z,23.51
2022-10-17T18:20:19.790Z,23.51
2022-10-17T18:22:46.327Z,23.50
2022-10-17T18:25:12.561Z,23.48
2022-10-17T18:27:38.845Z,23.48
2022-10-17T18:30:05.034Z,23.48
2022-10-17T18:32:31.694Z,23.46
2022-10-17T18:34:58.512Z,23.46
2022-10-17T18:37:25.404Z,23.45
2022-10-17T18:39:51.763Z,23.43
2022-10-17T18:42:18.007Z,23.44
2022-10-17T18:44:45.004Z,23.42
2022-10-17T18:47:11.248Z,23.42
2022-10-17T18:49:37.508Z,23.41
2022-10-17T18:52:03.776Z,23.40
2022-10-17T18:54:30.820Z,23.39
2022-10-17T18:56:57.469Z,23.39
2022-10-17T18:59:23.751Z,23.37
2022-10-17T19:01:50.023Z,23.36
2022-10-17T19:04:16.379Z,23.35
2022-10-17T19:06:42.606Z,23.33
2022-10-17T19:09:08.841Z,23.33
2022-10-17T19:11:35.133Z,23.32
2022-10-17T19:14:01.343Z,23.32
2022-10-17T19:16:28.728Z,23.32
2022-10-17T19:18:55.316Z,23.30
2022-10-17T19:21:22.202Z,23.29
2022-10-17T19:23:48.813Z,23.29
2022-10-17T19:26:15.093Z,23.28
2022-10-17T19:28:41.321Z,23.28
2022-10-17T19:31:07.650Z,23.27
2022-10-17T19:33:33.944Z,23.26
2022-10-17T19:36:00.155Z,23.25
2022-10-17T19:38:27.605Z,23.23
2022-10-17T19:40:54.003Z,23.23
2022-10-17T19:43:20.341Z,23.23
2022-10-17T19:45:46.653Z,23.23
2022-10-17T19:48:12.868Z,23.22
2022-10-17T19:50:41.313Z,23.23
2022-10-17T19:53:07.856Z,23.22
2022-10-17T19:55:34.231Z,23.22
2022-10-17T19:58:00.437Z,23.21
2022-10-17T20:00:26.641Z,23.21
2022-10-17T20:02:52.906Z,23.21
2022-10-17T20:05:19.782Z,23.20
2022-10-17T20:07:48.050Z,23.19
2022-10-17T20:10:14.395Z,23.19
2022-10-17T20:12:40.991Z,23.18
2022-10-17T20:15:08.789Z,23.17
2022-10-17T20:17:36.354Z,23.17
2022-10-17T20:20:06.262Z,23.16
2022-10-17T20:22:35.075Z,23.18
2022-10-17T20:25:01.291Z,23.16
2022-10-17T20:27:27.905Z,23.16
2022-10-17T20:29:54.207Z,23.15
2022-10-17T20:32:20.377Z,23.14
2022-10-17T20:34:47.041Z,23.14
2022-10-17T20:37:13.328Z,23.13
2022-10-17T20:39:39.560Z,23.12
2022-10-17T20:42:06.121Z,23.13
2022-10-17T20:44:32.461Z,23.12
2022-10-17T20:47:02.345Z,23.12
2022-10-17T20:49:28.977Z,23.10
2022-10-17T20:51:55.265Z,23.09
2022-10-17T20:54:21.710Z,23.09
2022-10-17T20:56:48.012Z,23.10
2022-10-17T20:59:14.364Z,23.07
2022-10-17T21:01:40.610Z,23.06
2022-10-17T21:04:33.425Z,23.06
2022-10-17T21:06:53.211Z,23.05
2022-10-17T21:09:19.562Z,23.05
2022-10-17T21:11:46.070Z,23.04
2022-10-17T21:14:12.375Z,23.04
2022-10-17T21:16:38.613Z,23.02
2022-10-17T21:19:05.059Z,23.02
2022-10-17T21:21:32.128Z,23.01
2022-10-17T21:23:58.550Z,23.01
2022-10-17T21:26:24.853Z,23.00
2022-10-17T21:28:52.582Z,23.01
2022-10-17T21:31:22.588Z,23.00
2022-10-17T21:33:48.841Z,22.98
2022-10-17T21:36:18.248Z,22.98
2022-10-17T21:38:45.041Z,22.98
2022-10-17T21:41:11.311Z,22.96
2022-10-17T21:43:38.226Z,22.94
2022-10-17T21:46:04.628Z,22.92
2022-10-17T21:48:30.862Z,22.91
2022-10-17T21:50:57.601Z,22.89
2022-10-17T21:53:24.133Z,22.87
2022-10-17T21:55:50.861Z,22.86
2022-10-17T21:58:18.093Z,22.83
2022-10-17T22:00:45.896Z,22.82
2022-10-17T22:03:12.099Z,22.80
2022-10-17T22:05:39.851Z,22.79
2022-10-17T22:08:06.399Z,22.77
2022-10-17T22:10:32.596Z,22.75
2022-10-17T22:12:58.837Z,22.73
2022-10-17T22:15:25.950Z,22.71
2022-10-17T22:17:54.709Z,22.70
2022-10-17T22:20:20.905Z,22.68
2022-10-17T22:22:48.042Z,22.67
2022-10-17T22:25:14.272Z,22.65
2022-10-17T22:27:40.564Z,22.64
2022-10-17T22:30:08.055Z,22.62
2022-10-17T22:32:34.941Z,22.60
2022-10-17T22:35:01.632Z,22.45
2022-10-17T22:37:27.996Z,22.58
2022-10-17T22:39:55.186Z,22.56
2022-10-17T22:44:52.752Z,22.54
2022-10-17T22:47:19.031Z,22.52
2022-10-17T22:49:46.516Z,22.52
2022-10-17T22:52:12.856Z,22.50
2022-10-17T22:54:40.182Z,22.49
2022-10-17T22:57:06.480Z,22.48
2022-10-17T22:59:32.658Z,22.46
2022-10-17T23:01:58.988Z,22.45
2022-10-17T23:04:26.055Z,22.44
2022-10-17T23:06:52.302Z,22.45
2022-10-17T23:09:18.635Z,22.44
2022-10-17T23:11:44.920Z,22.44
2022-10-17T23:14:11.195Z,22.44
2022-10-17T23:16:37.660Z,22.45
2022-10-17T23:19:03.969Z,22.44
2022-10-17T23:21:30.167Z,22.45
2022-10-17T23:23:56.389Z,22.43
2022-10-17T23:26:23.284Z,22.42
2022-10-17T23:28:49.618Z,22.42
2022-10-17T23:31:15.856Z,22.43
2022-10-17T23:33:42.133Z,22.43
2022-10-17T23:36:08.439Z,22.42
2022-10-17T23:38:34.770Z,22.42
2022-10-17T23:41:01.601Z,22.41
2022-10-17T23:43:27.840Z,22.41
2022-10-17T23:45:54.759Z,22.40
2022-10-17T23:48:21.087Z,22.40
2022-10-17T23:50:47.400Z,22.40
2022-10-17T23:53:13.633Z,22.39
2022-10-17T23:55:40.108Z,22.39
2022-10-17T23:58:06.955Z,22.39
